createdAt,value
2017-02-16T00:01:15.951Z,0
2017-02-16T00:03:21.578Z,0
2017-02-16T00:05:32.271Z,0
2017-02-16T00:07:27.144Z,0
2017-02-16T00:09:34.497Z,0
2017-02-16T00:11:48.878Z,0
2017-02-16T00:13:47.920Z,0
2017-02-16T00:15:51.327Z,0
2017-02-16T00:17:48.545Z,0
2017-02-16T00:19:52.295Z,0
2017-02-16T00:22:03.154Z,0
2017-02-16T00:24:28.666Z,0
2017-02-16T00:26:22.626Z,0
2017-02-16T00:28:36.336Z,0
2017-02-16T00:30:50.044Z,0
2017-02-16T00:32:49.530Z,0
2017-02-16T00:34:44.425Z,0
2017-02-16T00:36:44.570Z,0
2017-02-16T00:38:45.331Z,0
2017-02-16T00:40:50.279Z,0
2017-02-16T00:42:49.995Z,0
2017-02-16T00:44:56.394Z,0
2017-02-16T00:46:48.902Z,0
2017-02-16T00:48:52.229Z,0
2017-02-16T00:50:58.162Z,0
2017-02-16T00:52:58.528Z,0
2017-02-16T00:55:11.807Z,0
2017-02-16T00:57:09.967Z,0
2017-02-16T00:59:15.109Z,0
2017-02-16T01:01:21.968Z,0
2017-02-16T01:03:29.328Z,0
2017-02-16T01:05:36.717Z,0
2017-02-16T01:07:35.190Z,0
2017-02-16T01:09:34.504Z,0
2017-02-16T01:11:39.364Z,0
2017-02-16T01:13:43.813Z,0
2017-02-16T01:15:43.041Z,0
2017-02-16T01:17:54.494Z,0
2017-02-16T01:20:00.834Z,0
2017-02-16T01:22:09.660Z,0
2017-02-16T01:24:13.998Z,0
2017-02-16T01:26:18.405Z,0
2017-02-16T01:28:29.168Z,0
2017-02-16T01:30:34.774Z,0
2017-02-16T01:32:33.716Z,0
2017-02-16T01:34:43.033Z,0
2017-02-16T01:36:43.519Z,0
2017-02-16T01:38:45.511Z,0
2017-02-16T01:40:49.911Z,0
2017-02-16T01:42:52.329Z,0
2017-02-16T01:44:44.817Z,0
2017-02-16T01:46:48.534Z,0
2017-02-16T01:48:57.844Z,0
2017-02-16T01:51:07.909Z,0
2017-02-16T01:53:12.611Z,0
2017-02-16T01:55:20.107Z,0
2017-02-16T01:57:20.690Z,0
2017-02-16T01:59:36.784Z,0
2017-02-16T02:01:39.797Z,0
2017-02-16T02:03:42.779Z,0
2017-02-16T02:05:51.042Z,0
2017-02-16T02:07:50.755Z,0
2017-02-16T02:09:48.085Z,0
2017-02-16T02:11:55.276Z,0
2017-02-16T02:13:52.583Z,0
2017-02-16T02:15:49.853Z,0
2017-02-16T02:17:47.120Z,0
2017-02-16T02:19:39.429Z,0
2017-02-16T02:21:46.898Z,0
2017-02-16T02:23:44.194Z,0
2017-02-16T02:25:51.970Z,0
2017-02-16T02:27:54.576Z,0
2017-02-16T02:29:56.892Z,0
2017-02-16T02:31:49.154Z,0
2017-02-16T02:33:36.585Z,0
2017-02-16T02:35:24.953Z,0
2017-02-16T02:37:27.280Z,0
2017-02-16T02:39:29.666Z,0
2017-02-16T02:41:26.939Z,0
2017-02-16T02:43:24.385Z,0
2017-02-16T02:45:16.893Z,0
2017-02-16T02:47:19.247Z,0
2017-02-16T02:49:16.750Z,0
2017-02-16T02:51:14.138Z,0
2017-02-16T02:53:16.427Z,0
2017-02-16T02:55:18.782Z,0
2017-02-16T02:57:16.151Z,0
2017-02-16T02:59:08.467Z,0
2017-02-16T03:01:21.087Z,0
2017-02-16T03:03:13.571Z,0
2017-02-16T03:05:10.967Z,0
2017-02-16T03:07:08.325Z,0
2017-02-16T03:09:10.854Z,0
2017-02-16T03:11:03.399Z,0
2017-02-16T03:12:50.805Z,0
2017-02-16T03:14:53.042Z,0
2017-02-16T03:16:50.305Z,0
2017-02-16T03:18:52.676Z,0
2017-02-16T03:20:59.933Z,0
2017-02-16T03:23:12.834Z,0
2017-02-16T03:25:06.530Z,0
2017-02-16T03:26:48.866Z,0
2017-02-16T03:28:51.321Z,0
2017-02-16T03:30:38.726Z,0
2017-02-16T03:32:36.137Z,0
2017-02-16T03:34:33.425Z,0
2017-02-16T03:36:45.858Z,0
2017-02-16T03:38:43.150Z,0
2017-02-16T03:40:40.430Z,0
2017-02-16T03:42:47.841Z,0
2017-02-16T03:44:45.211Z,0
2017-02-16T03:46:37.569Z,0
2017-02-16T03:48:29.874Z,0
2017-02-16T03:50:22.375Z,0
2017-02-16T03:52:19.727Z,0
2017-02-16T03:54:27.083Z,0
2017-02-16T03:56:34.399Z,0
2017-02-16T03:58:36.620Z,0
2017-02-16T04:00:39.130Z,0
2017-02-16T04:02:41.444Z,0
2017-02-16T04:04:53.844Z,0
2017-02-16T04:06:56.105Z,0
2017-02-16T04:08:48.453Z,0
2017-02-16T04:10:50.919Z,0
2017-02-16T04:12:54.132Z,0
2017-02-16T04:14:51.467Z,0
2017-02-16T04:16:53.761Z,0
2017-02-16T04:18:55.983Z,0
2017-02-16T04:20:58.336Z,0
2017-02-16T04:23:00.750Z,0
2017-02-16T04:24:57.987Z,0
2017-02-16T04:27:00.363Z,0
2017-02-16T04:28:57.639Z,0
2017-02-16T04:30:59.853Z,0
2017-02-16T04:32:57.101Z,0
2017-02-16T04:34:49.814Z,0
2017-02-16T04:36:52.796Z,0
2017-02-16T04:38:45.051Z,0
2017-02-16T04:40:42.422Z,0
2017-02-16T04:42:29.751Z,0
2017-02-16T04:44:31.990Z,0
2017-02-16T04:46:39.726Z,0
2017-02-16T04:48:32.140Z,0
2017-02-16T04:50:24.370Z,0
2017-02-16T04:52:26.690Z,0
2017-02-16T04:54:23.933Z,0
2017-02-16T04:56:31.324Z,0
2017-02-16T04:58:28.642Z,0
2017-02-16T05:00:25.831Z,0
2017-02-16T05:02:28.134Z,0
2017-02-16T05:04:25.504Z,0
2017-02-16T05:06:17.930Z,0
2017-02-16T05:08:10.290Z,0
2017-02-16T05:09:57.649Z,0
2017-02-16T05:12:10.112Z,0
2017-02-16T05:14:12.516Z,0
2017-02-16T05:16:04.999Z,0
2017-02-16T05:17:57.249Z,0
2017-02-16T05:19:54.508Z,0
2017-02-16T05:22:02.034Z,0
2017-02-16T05:23:59.357Z,0
2017-02-16T05:26:01.641Z,0
2017-02-16T05:27:58.877Z,0
2017-02-16T05:30:01.172Z,0
2017-02-16T05:31:58.626Z,0
2017-02-16T05:33:56.099Z,0
2017-02-16T05:35:58.631Z,0
2017-02-16T05:37:55.954Z,0
2017-02-16T05:39:48.327Z,0
2017-02-16T05:41:30.792Z,0
2017-02-16T05:43:37.986Z,0
2017-02-16T05:45:25.305Z,0
2017-02-16T05:47:22.721Z,0
2017-02-16T05:49:19.985Z,0
2017-02-16T05:51:17.261Z,0
2017-02-16T05:53:09.544Z,0
2017-02-16T05:55:17.241Z,0
2017-02-16T05:57:24.957Z,0
2017-02-16T05:59:27.307Z,0
2017-02-16T06:01:30.028Z,0
2017-02-16T06:03:27.485Z,0
2017-02-16T06:05:29.817Z,0
2017-02-16T06:07:22.324Z,0
2017-02-16T06:09:19.864Z,5
2017-02-16T06:11:22.093Z,5
2017-02-16T06:13:09.440Z,5
2017-02-16T06:15:01.896Z,10
2017-02-16T06:17:04.134Z,10
2017-02-16T06:19:06.530Z,15
2017-02-16T06:21:14.711Z,15
2017-02-16T06:23:17.341Z,20
2017-02-16T06:25:20.033Z,25
2017-02-16T06:27:18.144Z,30
2017-02-16T06:29:20.556Z,30
2017-02-16T06:31:13.315Z,35
2017-02-16T06:33:10.783Z,40
2017-02-16T06:35:30.783Z,45
2017-02-16T06:37:45.536Z,50
2017-02-16T06:39:43.368Z,55
2017-02-16T06:41:50.650Z,60
2017-02-16T06:43:47.890Z,65
2017-02-16T06:45:45.330Z,70
2017-02-16T06:47:52.685Z,75
2017-02-16T06:50:00.255Z,85
2017-02-16T06:52:07.527Z,90
2017-02-16T06:54:04.833Z,95
2017-02-16T06:56:02.179Z,100
2017-02-16T06:57:49.606Z,105
2017-02-16T07:00:01.871Z,110
2017-02-16T07:02:04.087Z,115
2017-02-16T07:04:11.311Z,120
2017-02-16T07:06:18.587Z,125
2017-02-16T07:08:11.285Z,130
2017-02-16T07:10:13.982Z,135
2017-02-16T07:12:11.377Z,140
2017-02-16T07:14:08.684Z,145
2017-02-16T07:16:16.031Z,150
2017-02-16T07:18:13.411Z,155
2017-02-16T07:20:15.763Z,155
2017-02-16T07:22:23.227Z,160
2017-02-16T07:24:15.669Z,160
2017-02-16T07:26:03.096Z,165
2017-02-16T07:28:00.430Z,170
2017-02-16T07:29:57.782Z,175
2017-02-16T07:31:50.206Z,175
2017-02-16T07:33:47.588Z,180
2017-02-16T07:35:39.911Z,185
2017-02-16T07:37:47.335Z,190
2017-02-16T07:39:49.713Z,195
2017-02-16T07:41:37.040Z,195
2017-02-16T07:43:34.513Z,200
2017-02-16T07:45:42.559Z,200
2017-02-16T07:47:45.045Z,205
2017-02-16T07:49:42.338Z,210
2017-02-16T07:51:49.694Z,210
2017-02-16T07:53:32.270Z,215
2017-02-16T07:55:29.816Z,220
2017-02-16T07:57:27.119Z,220
2017-02-16T07:59:25.022Z,225
2017-02-16T08:01:27.726Z,230
2017-02-16T08:03:27.645Z,230
2017-02-16T08:05:25.161Z,235
2017-02-16T08:07:27.467Z,240
2017-02-16T08:09:33.758Z,240
2017-02-16T08:11:36.049Z,245
2017-02-16T08:13:43.474Z,245
2017-02-16T08:15:41.424Z,250
2017-02-16T08:17:38.663Z,255
2017-02-16T08:19:31.142Z,255
2017-02-16T08:21:28.957Z,260
2017-02-16T08:23:21.302Z,265
2017-02-16T08:25:33.592Z,265
2017-02-16T08:27:40.924Z,270
2017-02-16T08:29:38.229Z,275
2017-02-16T08:31:45.825Z,275
2017-02-16T08:33:48.090Z,280
2017-02-16T08:35:55.361Z,280
2017-02-16T08:37:57.756Z,285
2017-02-16T08:39:50.058Z,285
2017-02-16T08:41:47.333Z,290
2017-02-16T08:43:39.807Z,285
2017-02-16T08:45:37.283Z,290
2017-02-16T08:47:39.519Z,295
2017-02-16T08:49:26.917Z,295
2017-02-16T08:51:29.297Z,300
2017-02-16T08:53:26.720Z,300
2017-02-16T08:55:29.260Z,305
2017-02-16T08:57:26.534Z,315
2017-02-16T08:59:13.853Z,310
2017-02-16T09:01:16.253Z,315
2017-02-16T09:03:28.638Z,320
2017-02-16T09:05:20.997Z,325
2017-02-16T09:07:23.415Z,330
2017-02-16T09:09:30.651Z,335
2017-02-16T09:11:13.141Z,330
2017-02-16T09:13:10.649Z,335
2017-02-16T09:15:13.062Z,340
2017-02-16T09:17:05.421Z,350
2017-02-16T09:18:57.840Z,355
2017-02-16T09:20:50.138Z,625
2017-02-16T09:22:47.535Z,840
2017-02-16T09:24:45.785Z,865
2017-02-16T09:26:38.300Z,885
2017-02-16T09:28:27.174Z,895
2017-02-16T09:30:29.531Z,920
2017-02-16T09:32:34.793Z,940
2017-02-16T09:34:27.096Z,965
2017-02-16T09:36:34.481Z,985
2017-02-16T09:38:41.746Z,985
2017-02-16T09:40:39.190Z,1005
2017-02-16T09:42:46.431Z,1015
2017-02-16T09:44:48.828Z,1030
2017-02-16T09:46:46.274Z,1035
2017-02-16T09:48:43.775Z,1050
2017-02-16T09:50:26.144Z,1085
2017-02-16T09:52:28.718Z,1105
2017-02-16T09:54:26.182Z,1145
2017-02-16T09:56:13.554Z,1165
2017-02-16T09:58:11.037Z,1170
2017-02-16T10:00:03.358Z,1165
2017-02-16T10:02:05.693Z,1160
2017-02-16T10:04:07.979Z,1135
2017-02-16T10:06:10.525Z,1115
2017-02-16T10:08:08.116Z,1100
2017-02-16T10:09:50.645Z,1105
2017-02-16T10:11:58.019Z,1110
2017-02-16T10:13:55.355Z,1115
2017-02-16T10:15:52.693Z,1125
2017-02-16T10:17:35.125Z,1130
2017-02-16T10:19:43.434Z,1130
2017-02-16T10:21:40.956Z,1145
2017-02-16T10:23:18.517Z,1150
2017-02-16T10:25:16.066Z,1160
2017-02-16T10:27:20.174Z,1170
2017-02-16T10:29:22.517Z,1180
2017-02-16T10:31:24.794Z,1180
2017-02-16T10:33:32.115Z,1185
2017-02-16T10:35:24.678Z,1190
2017-02-16T10:37:22.011Z,1195
2017-02-16T10:39:29.340Z,1205
2017-02-16T10:41:31.829Z,1220
2017-02-16T10:43:39.463Z,1255
2017-02-16T10:45:41.703Z,1375
2017-02-16T10:47:34.055Z,1530
2017-02-16T10:49:31.472Z,1965
2017-02-16T10:51:33.774Z,2365
2017-02-16T10:53:36.162Z,2545
2017-02-16T10:55:33.451Z,2710
2017-02-16T10:57:25.872Z,2710
2017-02-16T10:59:28.384Z,2680
2017-02-16T11:01:25.706Z,2855
2017-02-16T11:03:28.076Z,2910
2017-02-16T11:05:25.498Z,2735
2017-02-16T11:07:32.942Z,2800
2017-02-16T11:09:40.400Z,3215
2017-02-16T11:11:47.791Z,3075
2017-02-16T11:13:40.259Z,2990
2017-02-16T11:15:37.751Z,2755
2017-02-16T11:17:35.347Z,2850
2017-02-16T11:19:40.306Z,2775
2017-02-16T11:21:42.658Z,2705
2017-02-16T11:23:40.057Z,2750
2017-02-16T11:25:42.417Z,2870
2017-02-16T11:27:49.741Z,2675
2017-02-16T11:29:56.934Z,2580
2017-02-16T11:31:54.979Z,2535
2017-02-16T11:33:57.557Z,2620
2017-02-16T11:36:00.739Z,2630
2017-02-16T11:37:58.114Z,2580
2017-02-16T11:40:10.478Z,2620
2017-02-16T11:42:46.671Z,2515
2017-02-16T11:45:07.754Z,2365
2017-02-16T11:47:15.172Z,2580
2017-02-16T11:49:07.534Z,2415
2017-02-16T11:51:00.046Z,2640
2017-02-16T11:53:07.739Z,2710
2017-02-16T11:55:15.168Z,2565
2017-02-16T11:57:17.481Z,2655
2017-02-16T12:01:20.433Z,2560
2017-02-16T12:03:17.828Z,2350
2017-02-16T12:05:20.160Z,2310
2017-02-16T12:07:22.609Z,2520
2017-02-16T12:09:25.060Z,2385
2017-02-16T12:11:21.529Z,2465
2017-02-16T12:13:23.948Z,2530
2017-02-16T12:15:31.334Z,2515
2017-02-16T12:17:28.799Z,2595
2017-02-16T12:19:26.485Z,2575
2017-02-16T12:21:40.499Z,2200
2017-02-16T12:23:38.049Z,2280
2017-02-16T12:25:36.761Z,2580
2017-02-16T12:27:40.011Z,2445
2017-02-16T12:29:40.843Z,2770
2017-02-16T12:31:48.320Z,2590
2017-02-16T12:33:45.654Z,2770
2017-02-16T12:35:43.005Z,2620
2017-02-16T12:37:59.306Z,2175
2017-02-16T12:40:02.000Z,2340
2017-02-16T12:41:59.828Z,2340
2017-02-16T12:44:02.234Z,1925
2017-02-16T12:45:59.548Z,1790
2017-02-16T12:48:02.051Z,1975
2017-02-16T12:49:59.444Z,1775
2017-02-16T12:52:11.863Z,1795
2017-02-16T12:54:14.234Z,2085
2017-02-16T12:56:11.688Z,2080
2017-02-16T12:58:09.652Z,1795
2017-02-16T13:00:07.272Z,2130
2017-02-16T13:02:09.601Z,2165
2017-02-16T13:04:14.942Z,1645
2017-02-16T13:06:14.976Z,1510
2017-02-16T13:08:12.414Z,1490
2017-02-16T13:10:21.474Z,1920
2017-02-16T13:12:25.011Z,1655
2017-02-16T13:14:32.284Z,1505
2017-02-16T13:16:29.535Z,1465
2017-02-16T13:18:31.812Z,1535
2017-02-16T13:20:40.346Z,1400
2017-02-16T13:22:45.461Z,1730
2017-02-16T13:24:43.001Z,1430
2017-02-16T13:26:37.799Z,1465
2017-02-16T13:28:36.902Z,1220
2017-02-16T13:30:40.512Z,1145
2017-02-16T13:32:38.358Z,1035
2017-02-16T13:34:39.781Z,1105
2017-02-16T13:36:38.638Z,1235
2017-02-16T13:38:42.327Z,1340
2017-02-16T13:40:51.077Z,1395
2017-02-16T13:43:05.093Z,1380
2017-02-16T13:45:14.409Z,1290
2017-02-16T13:47:23.342Z,1595
2017-02-16T13:49:20.758Z,1450
2017-02-16T13:51:29.577Z,1555
2017-02-16T13:53:40.109Z,1520
2017-02-16T13:55:27.515Z,1550
2017-02-16T13:57:29.843Z,1660
2017-02-16T13:59:22.216Z,1630
2017-02-16T14:01:09.726Z,1580
2017-02-16T14:03:02.161Z,1650
2017-02-16T14:05:14.454Z,1610
2017-02-16T14:07:16.870Z,1650
2017-02-16T14:09:29.143Z,1645
2017-02-16T14:11:41.459Z,1670
2017-02-16T14:13:43.809Z,1680
2017-02-16T14:15:36.356Z,1640
2017-02-16T14:17:33.642Z,1635
2017-02-16T14:19:31.119Z,1625
2017-02-16T14:21:28.500Z,1590
2017-02-16T14:23:30.887Z,1530
2017-02-16T14:25:18.258Z,1530
2017-02-16T14:27:25.748Z,1555
2017-02-16T14:29:28.356Z,1520
2017-02-16T14:31:35.654Z,1450
2017-02-16T14:33:33.030Z,1420
2017-02-16T14:35:30.502Z,1330
2017-02-16T14:37:32.898Z,1285
2017-02-16T14:39:35.291Z,1220
2017-02-16T14:41:38.210Z,1095
2017-02-16T14:43:40.785Z,1065
2017-02-16T14:45:38.137Z,1075
2017-02-16T14:47:40.653Z,1090
2017-02-16T14:49:53.527Z,1000
2017-02-16T14:51:51.036Z,960
2017-02-16T14:53:53.269Z,895
2017-02-16T14:55:45.537Z,865
2017-02-16T14:57:27.993Z,805
2017-02-16T14:59:30.324Z,780
2017-02-16T15:01:42.590Z,770
2017-02-16T15:03:50.068Z,810
2017-02-16T15:05:47.403Z,770
2017-02-16T15:07:49.729Z,775
2017-02-16T15:09:52.187Z,700
2017-02-16T15:11:48.237Z,630
2017-02-16T15:14:10.674Z,580
2017-02-16T15:17:00.875Z,525
2017-02-16T15:19:54.083Z,575
2017-02-16T15:22:49.212Z,525
2017-02-16T15:25:46.195Z,445
2017-02-16T15:28:44.255Z,410
2017-02-16T15:31:41.642Z,335
2017-02-16T15:34:41.948Z,275
2017-02-16T15:37:36.127Z,245
2017-02-16T15:40:31.639Z,220
2017-02-16T15:43:34.421Z,215
2017-02-16T15:46:13.406Z,165
2017-02-16T15:48:32.232Z,155
2017-02-16T15:50:24.929Z,150
2017-02-16T15:52:17.464Z,145
2017-02-16T15:54:20.758Z,160
2017-02-16T15:56:28.155Z,175
2017-02-16T15:58:25.567Z,155
2017-02-16T16:00:27.934Z,160
2017-02-16T16:02:25.298Z,150
2017-02-16T16:04:27.553Z,175
2017-02-16T16:06:40.168Z,165
2017-02-16T16:08:46.089Z,150
2017-02-16T16:10:48.453Z,140
2017-02-16T16:12:45.723Z,125
2017-02-16T16:14:48.151Z,110
2017-02-16T16:16:55.488Z,95
2017-02-16T16:18:57.764Z,80
2017-02-16T16:20:55.027Z,70
2017-02-16T16:22:42.385Z,60
2017-02-16T16:24:49.636Z,55
2017-02-16T16:27:02.896Z,45
2017-02-16T16:28:55.277Z,35
2017-02-16T16:30:47.545Z,30
2017-02-16T16:32:44.906Z,25
2017-02-16T16:34:47.141Z,25
2017-02-16T16:36:39.442Z,20
2017-02-16T16:38:41.976Z,15
2017-02-16T16:40:44.539Z,15
2017-02-16T16:42:52.364Z,10
2017-02-16T16:44:44.769Z,5
2017-02-16T16:46:37.271Z,5
2017-02-16T16:48:44.571Z,5
2017-02-16T16:50:36.923Z,0
2017-02-16T16:52:34.325Z,0
2017-02-16T16:54:26.695Z,0
2017-02-16T16:56:23.996Z,0
2017-02-16T16:58:21.597Z,0
2017-02-16T17:00:03.925Z,0
2017-02-16T17:02:06.301Z,0
2017-02-16T17:03:58.594Z,0
2017-02-16T17:06:01.054Z,0
2017-02-16T17:08:03.383Z,0
2017-02-16T17:10:10.754Z,0
2017-02-16T17:12:13.204Z,0
2017-02-16T17:14:25.448Z,0
2017-02-16T17:16:32.806Z,0
2017-02-16T17:18:35.237Z,0
2017-02-16T17:20:22.567Z,0
2017-02-16T17:22:19.950Z,0
2017-02-16T17:24:07.245Z,0
2017-02-16T17:26:04.717Z,0
2017-02-16T17:28:02.169Z,0
2017-02-16T17:30:09.902Z,0
2017-02-16T17:32:17.346Z,0
2017-02-16T17:34:19.733Z,0
2017-02-16T17:36:17.229Z,0
2017-02-16T17:38:09.590Z,0
2017-02-16T17:40:16.933Z,0
2017-02-16T17:42:14.373Z,0
2017-02-16T17:44:16.694Z,0
2017-02-16T17:46:28.925Z,0
2017-02-16T17:48:26.208Z,0
2017-02-16T17:50:13.762Z,0
2017-02-16T17:52:16.181Z,0
2017-02-16T17:54:19.120Z,0
2017-02-16T17:56:26.446Z,0
2017-02-16T17:58:19.058Z,0
2017-02-16T18:00:12.614Z,0
2017-02-16T18:02:24.874Z,0
2017-02-16T18:04:17.475Z,0
2017-02-16T18:06:04.850Z,0
2017-02-16T18:08:02.120Z,0
2017-02-16T18:10:09.408Z,0
2017-02-16T18:11:56.932Z,0
2017-02-16T18:13:54.277Z,0
2017-02-16T18:15:46.709Z,0
2017-02-16T18:17:45.199Z,0
2017-02-16T18:19:49.236Z,0
2017-02-16T18:21:51.828Z,0
2017-02-16T18:23:59.130Z,0
2017-02-16T18:26:01.435Z,0
2017-02-16T18:27:58.679Z,0
2017-02-16T18:30:01.324Z,0
2017-02-16T18:32:04.294Z,0
2017-02-16T18:34:06.823Z,0
2017-02-16T18:36:14.310Z,0
2017-02-16T18:38:16.764Z,0
2017-02-16T18:40:19.342Z,0
2017-02-16T18:42:11.796Z,0
2017-02-16T18:44:04.295Z,0
2017-02-16T18:46:01.882Z,0
2017-02-16T18:47:59.612Z,0
2017-02-16T18:49:52.010Z,0
2017-02-16T18:51:54.395Z,0
2017-02-16T18:54:01.956Z,0
2017-02-16T18:56:09.531Z,0
2017-02-16T18:58:06.871Z,0
2017-02-16T19:00:09.213Z,0
2017-02-16T19:02:11.601Z,0
2017-02-16T19:04:19.235Z,0
2017-02-16T19:06:06.559Z,0
2017-02-16T19:08:09.099Z,0
2017-02-16T19:10:06.674Z,0
2017-02-16T19:12:09.104Z,0
2017-02-16T19:14:16.562Z,0
2017-02-16T19:16:18.889Z,0
2017-02-16T19:18:16.145Z,0
2017-02-16T19:20:28.430Z,0
2017-02-16T19:22:15.781Z,0
2017-02-16T19:24:18.187Z,0
2017-02-16T19:26:25.476Z,0
2017-02-16T19:28:22.913Z,0
2017-02-16T19:30:10.401Z,0
2017-02-16T19:32:07.812Z,0
2017-02-16T19:33:55.188Z,0
2017-02-16T19:35:57.584Z,0
2017-02-16T19:38:00.022Z,0
2017-02-16T19:40:07.397Z,0
2017-02-16T19:42:14.837Z,0
2017-02-16T19:44:17.207Z,0
2017-02-16T19:46:14.566Z,0
2017-02-16T19:48:12.223Z,0
2017-02-16T19:50:19.573Z,0
2017-02-16T19:52:17.204Z,0
2017-02-16T19:54:14.777Z,0
2017-02-16T19:56:07.317Z,0
2017-02-16T19:58:04.732Z,0
2017-02-16T20:00:07.126Z,0
2017-02-16T20:02:04.529Z,0
2017-02-16T20:04:06.922Z,0
2017-02-16T20:05:59.409Z,0
2017-02-16T20:08:01.853Z,0
2017-02-16T20:10:04.333Z,0
2017-02-16T20:12:06.693Z,0
2017-02-16T20:14:14.107Z,0
2017-02-16T20:16:21.490Z,0
2017-02-16T20:18:29.056Z,0
2017-02-16T20:20:21.407Z,0
2017-02-16T20:22:28.865Z,0
2017-02-16T20:24:26.329Z,0
2017-02-16T20:26:34.073Z,0
2017-02-16T20:28:26.681Z,0
2017-02-16T20:30:14.175Z,0
2017-02-16T20:32:06.673Z,0
2017-02-16T20:34:04.119Z,0
2017-02-16T20:36:01.589Z,0
2017-02-16T20:38:09.328Z,0
2017-02-16T20:40:07.096Z,0
2017-02-16T20:42:09.557Z,0
2017-02-16T20:44:17.149Z,0
2017-02-16T20:46:19.732Z,0
2017-02-16T20:48:17.360Z,0
2017-02-16T20:50:09.785Z,0
2017-02-16T20:52:17.211Z,0
2017-02-16T20:54:19.531Z,0
2017-02-16T20:56:17.355Z,0
2017-02-16T20:58:12.220Z,0
2017-02-16T21:00:09.679Z,0
2017-02-16T21:02:12.303Z,0
2017-02-16T21:04:19.825Z,0
2017-02-16T21:06:32.639Z,0
2017-02-16T21:08:40.250Z,0
2017-02-16T21:10:42.999Z,0
2017-02-16T21:12:45.799Z,0
2017-02-16T21:14:53.395Z,0
2017-02-16T21:16:45.833Z,0
2017-02-16T21:18:38.385Z,0
2017-02-16T21:20:35.819Z,0
2017-02-16T21:22:38.191Z,0
2017-02-16T21:24:35.811Z,0
2017-02-16T21:26:23.250Z,0
2017-02-16T21:28:30.899Z,0
2017-02-16T21:30:33.482Z,0
2017-02-16T21:32:36.168Z,0
2017-02-16T21:34:43.449Z,0
2017-02-16T21:36:46.163Z,0
2017-02-16T21:38:48.923Z,0
2017-02-16T21:40:51.505Z,0
2017-02-16T21:43:04.287Z,0
2017-02-16T21:45:01.653Z,0
2017-02-16T21:46:59.070Z,0
2017-02-16T21:49:06.451Z,0
2017-02-16T21:51:13.847Z,0
2017-02-16T21:53:01.371Z,0
2017-02-16T21:55:06.391Z,0
2017-02-16T21:56:59.173Z,0
2017-02-16T21:59:06.559Z,0
2017-02-16T22:01:09.102Z,0
2017-02-16T22:03:21.632Z,0
2017-02-16T22:05:19.087Z,0
2017-02-16T22:07:16.566Z,0
2017-02-16T22:08:59.027Z,0
2017-02-16T22:11:06.461Z,0
2017-02-16T22:12:58.961Z,0
2017-02-16T22:15:06.479Z,0
2017-02-16T22:17:13.917Z,0
2017-02-16T22:19:06.405Z,0
2017-02-16T22:21:03.895Z,0
2017-02-16T22:23:11.186Z,0
2017-02-16T22:25:23.865Z,0
2017-02-16T22:27:26.436Z,0
2017-02-16T22:29:47.575Z,0
2017-02-16T22:31:55.217Z,0
2017-02-16T22:34:07.706Z,0
2017-02-16T22:36:08.004Z,0
2017-02-16T22:38:19.914Z,0
2017-02-16T22:40:32.303Z,0
2017-02-16T22:42:33.582Z,0
2017-02-16T22:44:45.939Z,0
2017-02-16T22:46:58.018Z,0
2017-02-16T22:49:10.473Z,0
2017-02-16T22:51:20.327Z,0
2017-02-16T22:53:28.272Z,0
2017-02-16T22:55:20.719Z,0
2017-02-16T22:57:23.031Z,0
2017-02-16T22:59:15.409Z,0
2017-02-16T23:01:12.846Z,0
2017-02-16T23:03:15.112Z,0
2017-02-16T23:05:17.540Z,0
2017-02-16T23:07:19.836Z,0
2017-02-16T23:09:07.253Z,0
2017-02-16T23:11:04.515Z,0
2017-02-16T23:13:06.784Z,0
2017-02-16T23:15:13.332Z,0
2017-02-16T23:17:19.221Z,0
2017-02-16T23:19:27.277Z,0
2017-02-16T23:21:20.250Z,0
2017-02-16T23:23:32.975Z,0
2017-02-16T23:25:35.580Z,0
2017-02-16T23:27:38.765Z,0
2017-02-16T23:29:41.113Z,0
2017-02-16T23:31:38.594Z,0
2017-02-16T23:33:36.027Z,0
2017-02-16T23:35:33.398Z,0
2017-02-16T23:37:35.713Z,0
2017-02-16T23:39:33.140Z,0
2017-02-16T23:41:30.546Z,0
2017-02-16T23:43:37.902Z,0
2017-02-16T23:45:30.320Z,0
2017-02-16T23:47:27.631Z,0
2017-02-16T23:49:34.965Z,0
2017-02-16T23:51:27.517Z,0
2017-02-16T23:53:24.910Z,0
2017-02-16T23:55:27.415Z,0
2017-02-16T23:57:24.928Z,0
2017-02-16T23:59:22.290Z,0
